TAF KBOI
KBOI 280520Z 2806/2906 14006KT P6SM BKN100=
METAR KBOI
WC KBOI
WS KBOI
WV KBOI